createdAt,value
2022-09-17T00:02:23.278Z,8.00
2022-09-17T00:04:53.447Z,8.10
2022-09-17T00:07:24.037Z,7.80
2022-09-17T00:09:53.834Z,8.20
2022-09-17T00:12:24.369Z,8.00
2022-09-17T00:14:57.576Z,7.90
2022-09-17T00:17:27.810Z,7.80
2022-09-17T00:19:57.589Z,8.00
2022-09-17T00:22:28.207Z,8.30
2022-09-17T00:24:57.981Z,7.80
2022-09-17T00:27:28.351Z,8.00
2022-09-17T00:30:00.739Z,8.00
2022-09-17T00:32:31.216Z,8.00
2022-09-17T00:35:00.989Z,7.90
2022-09-17T00:37:31.237Z,8.00
2022-09-17T00:40:01.006Z,7.90
2022-09-17T00:42:31.255Z,8.40
2022-09-17T00:45:03.862Z,8.00
2022-09-17T00:47:36.819Z,8.00
2022-09-17T00:50:10.714Z,8.20
2022-09-17T00:52:45.549Z,8.20
2022-09-17T00:55:22.063Z,8.40
2022-09-17T00:57:56.017Z,8.00
2022-09-17T01:00:30.906Z,8.00
2022-09-17T01:03:02.116Z,7.80
2022-09-17T01:05:39.114Z,8.40
2022-09-17T01:08:16.484Z,8.10
2022-09-17T01:11:12.716Z,8.10
2022-09-17T01:13:55.816Z,8.40
2022-09-17T01:16:39.539Z,8.20
2022-09-17T01:19:35.127Z,8.10
2022-09-17T01:22:10.315Z,8.20
2022-09-17T01:24:52.665Z,8.20
2022-09-17T01:27:53.690Z,8.30
2022-09-17T01:30:42.466Z,8.30
2022-09-17T01:33:18.205Z,8.40
2022-09-17T01:35:54.871Z,8.50
2022-09-17T01:38:30.588Z,8.80
2022-09-17T01:41:09.623Z,8.80
2022-09-17T01:43:45.837Z,8.60
2022-09-17T01:46:24.410Z,8.70
2022-09-17T01:49:01.586Z,8.70
2022-09-17T01:51:35.275Z,8.80
2022-09-17T01:54:11.057Z,8.70
2022-09-17T01:59:34.978Z,8.80
2022-09-17T02:05:01.436Z,8.90
2022-09-17T02:07:34.629Z,8.80
2022-09-17T02:10:08.724Z,8.70
2022-09-17T02:12:42.320Z,8.70
2022-09-17T02:15:17.793Z,8.70
2022-09-17T02:17:54.322Z,8.70
2022-09-17T02:20:32.651Z,8.70
2022-09-17T02:23:08.428Z,8.70
2022-09-17T02:25:44.984Z,8.70
2022-09-17T02:28:18.997Z,8.70
2022-09-17T02:30:48.775Z,8.60
2022-09-17T02:33:18.903Z,8.70
2022-09-17T02:35:51.374Z,8.60
2022-09-17T02:38:26.492Z,8.80
2022-09-17T02:41:09.026Z,8.70
2022-09-17T02:43:45.882Z,8.50
2022-09-17T02:46:38.947Z,8.80
2022-09-17T02:49:24.481Z,8.80
2022-09-17T02:52:07.895Z,8.80
2022-09-17T02:54:44.540Z,8.50
2022-09-17T02:57:25.415Z,8.50
2022-09-17T03:00:02.946Z,8.50
2022-09-17T03:02:39.142Z,8.50
2022-09-17T03:05:10.906Z,8.50
2022-09-17T03:07:44.246Z,8.80
2022-09-17T03:10:14.541Z,8.50
2022-09-17T03:12:44.917Z,8.70
2022-09-17T03:15:14.646Z,8.50
2022-09-17T03:17:45.212Z,8.50
2022-09-17T03:20:16.155Z,8.40
2022-09-17T03:22:49.101Z,8.40
2022-09-17T03:25:18.980Z,8.40
2022-09-17T03:27:49.097Z,8.50
2022-09-17T03:30:18.949Z,8.50
2022-09-17T03:32:50.285Z,8.80
2022-09-17T03:35:19.975Z,8.40
2022-09-17T03:37:52.299Z,8.40
2022-09-17T03:40:22.590Z,8.40
2022-09-17T03:42:52.720Z,8.40
2022-09-17T03:45:22.488Z,8.40
2022-09-17T03:47:52.439Z,8.80
2022-09-17T03:50:22.312Z,8.40
2022-09-17T03:52:54.941Z,8.40
2022-09-17T03:55:24.692Z,8.40
2022-09-17T03:57:56.152Z,8.70
2022-09-17T04:00:26.012Z,8.40
2022-09-17T04:02:55.964Z,8.40
2022-09-17T04:05:25.750Z,8.40
2022-09-17T04:07:58.512Z,8.40
2022-09-17T04:10:29.349Z,8.50
2022-09-17T04:12:59.716Z,8.50
2022-09-17T04:15:29.445Z,8.30
2022-09-17T04:18:00.493Z,8.30
2022-09-17T04:20:31.865Z,8.40
2022-09-17T04:23:04.671Z,8.30
2022-09-17T04:25:34.415Z,8.30
2022-09-17T04:28:04.815Z,8.30
2022-09-17T04:30:34.752Z,8.30
2022-09-17T04:33:04.876Z,8.40
2022-09-17T04:35:34.650Z,8.30
2022-09-17T04:38:07.717Z,8.30
2022-09-17T04:40:37.645Z,8.20
2022-09-17T04:43:07.823Z,8.20
2022-09-17T04:45:37.628Z,8.20
2022-09-17T04:48:08.224Z,8.10
2022-09-17T04:50:37.993Z,8.20
2022-09-17T04:53:11.182Z,8.20
2022-09-17T04:55:40.982Z,8.40
2022-09-17T04:58:11.406Z,8.10
2022-09-17T05:00:41.949Z,8.20
2022-09-17T05:03:12.803Z,8.40
2022-09-17T05:05:42.543Z,8.40
2022-09-17T05:08:16.122Z,8.10
2022-09-17T05:10:45.856Z,8.10
2022-09-17T05:13:16.266Z,8.10
2022-09-17T05:15:46.131Z,8.20
2022-09-17T05:18:16.697Z,8.40
2022-09-17T05:20:46.488Z,8.40
2022-09-17T05:23:19.249Z,8.40
2022-09-17T05:25:49.172Z,8.10
2022-09-17T05:28:19.717Z,8.40
2022-09-17T05:30:49.465Z,8.00
2022-09-17T05:33:19.898Z,8.00
2022-09-17T05:35:49.923Z,7.80
2022-09-17T05:38:22.995Z,8.00
2022-09-17T05:40:53.927Z,8.20
2022-09-17T05:43:24.382Z,8.00
2022-09-17T05:45:54.703Z,8.00
2022-09-17T05:48:25.305Z,8.00
2022-09-17T05:50:55.235Z,8.00
2022-09-17T05:53:28.456Z,7.90
2022-09-17T05:55:59.939Z,7.80
2022-09-17T05:58:30.549Z,7.90
2022-09-17T06:01:07.182Z,8.10
2022-09-17T06:06:10.174Z,8.10
2022-09-17T06:08:42.857Z,7.80
2022-09-17T06:11:12.630Z,8.00
2022-09-17T06:13:43.678Z,8.10
2022-09-17T06:16:13.508Z,7.90
2022-09-17T06:18:43.315Z,8.40
2022-09-17T06:21:13.071Z,8.40
2022-09-17T06:23:46.243Z,8.00
2022-09-17T06:26:16.042Z,8.00
2022-09-17T06:28:46.690Z,8.00
2022-09-17T06:31:16.875Z,8.10
2022-09-17T06:33:48.607Z,7.90
2022-09-17T06:36:18.374Z,7.80
2022-09-17T06:38:51.252Z,7.90
2022-09-17T06:41:21.019Z,7.80
2022-09-17T06:43:51.364Z,7.80
2022-09-17T06:46:21.255Z,7.70
2022-09-17T06:48:51.715Z,7.70
2022-09-17T06:51:22.651Z,7.70
2022-09-17T06:53:55.833Z,7.70
2022-09-17T06:56:25.603Z,7.60
2022-09-17T06:58:57.443Z,7.60
2022-09-17T07:01:27.291Z,7.60
2022-09-17T07:03:57.926Z,7.60
2022-09-17T07:06:27.712Z,7.60
2022-09-17T07:09:01.697Z,7.60
2022-09-17T07:11:32.723Z,7.60
2022-09-17T07:14:03.064Z,7.60
2022-09-17T07:16:35.252Z,7.60
2022-09-17T07:19:06.883Z,8.00
2022-09-17T07:21:36.701Z,7.70
2022-09-17T07:24:10.152Z,7.60
2022-09-17T07:26:39.900Z,8.00
2022-09-17T07:29:10.441Z,7.80
2022-09-17T07:31:40.252Z,7.70
2022-09-17T07:34:10.070Z,8.00
2022-09-17T07:36:39.823Z,8.10
2022-09-17T07:39:13.375Z,7.90
2022-09-17T07:41:43.465Z,8.40
2022-09-17T07:44:14.038Z,7.90
2022-09-17T07:46:43.830Z,8.00
2022-09-17T07:49:14.551Z,8.10
2022-09-17T07:51:44.299Z,8.10
2022-09-17T07:54:17.262Z,7.80
2022-09-17T07:56:47.719Z,7.80
2022-09-17T07:59:18.293Z,7.90
2022-09-17T08:01:48.417Z,8.00
2022-09-17T08:04:18.638Z,7.90
2022-09-17T08:06:51.796Z,8.10
2022-09-17T08:09:24.854Z,8.10
2022-09-17T08:11:56.369Z,8.10
2022-09-17T08:14:29.961Z,8.10
2022-09-17T08:17:00.149Z,8.20
2022-09-17T08:22:25.459Z,8.30
2022-09-17T08:24:58.035Z,8.40
2022-09-17T08:27:28.863Z,8.30
2022-09-17T08:29:58.589Z,8.30
2022-09-17T08:32:29.166Z,8.30
2022-09-17T08:34:59.186Z,8.20
2022-09-17T08:37:31.876Z,8.50
2022-09-17T08:40:04.955Z,8.70
2022-09-17T08:42:40.893Z,8.90
2022-09-17T08:45:19.075Z,8.70
2022-09-17T08:47:49.911Z,8.60
2022-09-17T08:50:29.479Z,9.00
2022-09-17T08:53:23.929Z,9.10
2022-09-17T08:56:02.763Z,9.00
2022-09-17T08:58:43.098Z,9.00
2022-09-17T09:01:26.812Z,9.00
2022-09-17T09:04:10.131Z,9.30
2022-09-17T09:06:45.642Z,9.00
2022-09-17T09:09:19.170Z,9.00
2022-09-17T09:11:57.189Z,9.20
2022-09-17T09:14:32.706Z,9.20
2022-09-17T09:17:08.835Z,9.30
2022-09-17T09:19:46.648Z,9.20
2022-09-17T09:22:32.856Z,9.20
2022-09-17T09:25:10.260Z,9.30
2022-09-17T09:27:50.017Z,9.10
2022-09-17T09:30:23.786Z,9.10
2022-09-17T09:33:00.962Z,9.10
2022-09-17T09:35:34.220Z,9.20
2022-09-17T09:38:09.041Z,9.30
2022-09-17T09:40:44.824Z,9.40
2022-09-17T09:43:23.287Z,9.40
2022-09-17T09:46:12.658Z,10.00
2022-09-17T09:48:54.426Z,10.10
2022-09-17T09:51:36.312Z,10.50
2022-09-17T09:54:26.458Z,10.40
2022-09-17T09:57:00.110Z,10.00
2022-09-17T09:59:33.721Z,9.90
2022-09-17T10:02:03.583Z,9.60
2022-09-17T10:04:33.877Z,9.70
2022-09-17T10:07:05.886Z,9.80
2022-09-17T10:09:37.118Z,9.60
2022-09-17T10:12:17.461Z,9.60
2022-09-17T10:14:51.155Z,9.80
2022-09-17T10:17:26.152Z,10.20
2022-09-17T10:20:22.207Z,10.30
2022-09-17T10:22:53.397Z,11.00
2022-09-17T10:25:33.794Z,11.00
2022-09-17T10:28:07.676Z,10.60
2022-09-17T10:30:59.165Z,10.40
2022-09-17T10:33:31.488Z,10.00
2022-09-17T10:36:04.546Z,10.50
2022-09-17T10:38:38.284Z,10.90
2022-09-17T10:41:17.074Z,10.90
2022-09-17T10:43:48.471Z,10.80
2022-09-17T10:46:27.556Z,10.50
2022-09-17T10:49:11.947Z,11.00
2022-09-17T10:51:42.259Z,11.00
2022-09-17T10:54:40.741Z,10.80
2022-09-17T10:57:12.139Z,10.40
2022-09-17T11:00:06.044Z,10.20
2022-09-17T11:03:08.724Z,10.30
2022-09-17T11:05:50.869Z,10.50
2022-09-17T11:08:27.994Z,11.10
2022-09-17T11:11:06.805Z,10.70
2022-09-17T11:13:44.836Z,10.60
2022-09-17T11:16:38.273Z,10.40
2022-09-17T11:19:21.563Z,10.80
2022-09-17T11:21:59.745Z,10.60
2022-09-17T11:25:03.225Z,10.60
2022-09-17T11:27:53.626Z,10.60
2022-09-17T11:30:27.156Z,10.90
2022-09-17T11:33:33.148Z,11.10
2022-09-17T11:36:13.548Z,11.30
2022-09-17T11:38:47.985Z,11.90
2022-09-17T11:41:22.128Z,12.00
2022-09-17T11:44:10.936Z,11.90
2022-09-17T11:46:47.154Z,11.60
2022-09-17T11:49:28.096Z,11.10
2022-09-17T11:52:04.923Z,11.00
2022-09-17T11:54:41.786Z,10.80
2022-09-17T11:57:19.514Z,11.00
2022-09-17T11:59:55.118Z,10.70
2022-09-17T12:02:30.470Z,11.00
2022-09-17T12:05:06.902Z,11.20
2022-09-17T12:07:48.884Z,11.70
2022-09-17T12:10:36.070Z,11.90
2022-09-17T12:13:17.309Z,12.10
2022-09-17T12:15:53.347Z,11.80
2022-09-17T12:18:34.472Z,11.40
2022-09-17T12:21:07.342Z,10.80
2022-09-17T12:23:47.393Z,10.70
2022-09-17T12:26:34.237Z,11.10
2022-09-17T12:29:12.188Z,11.30
2022-09-17T12:31:47.113Z,11.30
2022-09-17T12:34:31.002Z,11.30
2022-09-17T12:37:11.264Z,11.40
2022-09-17T12:40:20.178Z,11.30
2022-09-17T12:43:02.581Z,11.70
2022-09-17T12:45:52.588Z,12.00
2022-09-17T12:48:49.074Z,11.80
2022-09-17T12:51:40.395Z,11.40
2022-09-17T12:54:19.984Z,11.30
2022-09-17T12:57:03.357Z,11.20
2022-09-17T12:59:35.345Z,10.30
2022-09-17T13:02:15.355Z,9.50
2022-09-17T13:05:22.951Z,9.60
2022-09-17T13:08:18.857Z,9.50
2022-09-17T13:11:17.241Z,9.60
2022-09-17T13:13:56.559Z,9.60
2022-09-17T13:16:31.463Z,9.70
2022-09-17T13:19:23.588Z,9.60
2022-09-17T13:21:56.885Z,9.60
2022-09-17T13:24:30.807Z,9.70
2022-09-17T13:27:02.441Z,10.10
2022-09-17T13:30:06.673Z,10.30
2022-09-17T13:32:50.530Z,10.60
2022-09-17T13:35:50.586Z,10.40
2022-09-17T13:38:25.933Z,10.20
2022-09-17T13:41:15.786Z,10.10
2022-09-17T13:43:48.743Z,9.90
2022-09-17T13:46:26.539Z,9.90
2022-09-17T13:49:01.188Z,9.90
2022-09-17T13:51:47.618Z,9.60
2022-09-17T13:54:20.846Z,9.70
2022-09-17T13:57:07.124Z,9.70
2022-09-17T13:59:39.685Z,9.70
2022-09-17T14:02:39.695Z,9.70
2022-09-17T14:05:37.263Z,9.70
2022-09-17T14:08:30.024Z,9.70
2022-09-17T14:11:02.295Z,9.70
2022-09-17T14:13:46.958Z,9.60
2022-09-17T14:16:37.173Z,9.50
2022-09-17T14:19:30.433Z,9.70
2022-09-17T14:22:03.833Z,9.70
2022-09-17T14:24:39.671Z,9.80
2022-09-17T14:27:23.089Z,9.90
2022-09-17T14:30:15.244Z,9.90
2022-09-17T14:32:51.531Z,10.00
2022-09-17T14:35:28.990Z,10.10
2022-09-17T14:38:02.948Z,10.00
2022-09-17T14:40:35.233Z,9.90
2022-09-17T14:43:06.718Z,9.90
2022-09-17T14:45:43.401Z,9.90
2022-09-17T14:48:34.676Z,10.00
2022-09-17T14:51:34.622Z,9.90
2022-09-17T14:54:17.716Z,9.80
2022-09-17T14:56:55.167Z,9.50
2022-09-17T14:59:53.621Z,9.30
2022-09-17T15:02:33.015Z,9.00
2022-09-17T15:05:04.269Z,9.00
2022-09-17T15:07:41.817Z,9.20
2022-09-17T15:10:18.900Z,9.30
2022-09-17T15:12:50.310Z,9.20
2022-09-17T15:15:23.634Z,9.00
2022-09-17T15:17:55.997Z,8.70
2022-09-17T15:20:31.345Z,8.00
2022-09-17T15:23:13.330Z,7.80
2022-09-17T15:25:45.405Z,8.00
2022-09-17T15:28:27.766Z,7.80
2022-09-17T15:30:57.572Z,7.50
2022-09-17T15:33:28.520Z,7.50
2022-09-17T15:36:03.569Z,7.80
2022-09-17T15:38:37.024Z,7.60
2022-09-17T15:41:31.799Z,7.70
2022-09-17T15:44:32.989Z,7.50
2022-09-17T15:47:33.231Z,7.50
2022-09-17T15:50:26.236Z,7.40
2022-09-17T15:53:14.884Z,7.30
2022-09-17T15:55:48.962Z,7.50
2022-09-17T15:58:27.282Z,7.20
2022-09-17T16:01:39.783Z,7.20
2022-09-17T16:04:28.207Z,7.40
2022-09-17T16:07:04.935Z,7.20
2022-09-17T16:09:43.903Z,7.40
2022-09-17T16:12:18.691Z,7.90
2022-09-17T16:14:50.969Z,8.00
2022-09-17T16:17:39.758Z,7.90
2022-09-17T16:20:18.193Z,8.20
2022-09-17T16:22:49.107Z,7.90
2022-09-17T16:25:20.129Z,8.10
2022-09-17T16:28:09.573Z,7.90
2022-09-17T16:30:39.799Z,8.20
2022-09-17T16:33:10.681Z,7.80
2022-09-17T16:35:40.778Z,7.90
2022-09-17T16:38:12.953Z,7.70
2022-09-17T16:40:45.048Z,7.70
2022-09-17T16:43:18.433Z,7.80
2022-09-17T16:46:01.170Z,7.80
2022-09-17T16:48:32.267Z,7.60
2022-09-17T16:51:02.183Z,7.80
2022-09-17T16:53:32.457Z,7.50
2022-09-17T16:56:02.215Z,7.40
2022-09-17T16:58:35.531Z,7.40
2022-09-17T17:01:09.680Z,7.40
2022-09-17T17:03:40.605Z,7.30
2022-09-17T17:06:18.094Z,7.40
2022-09-17T17:08:48.206Z,7.70
2022-09-17T17:11:18.320Z,7.40
2022-09-17T17:13:50.823Z,7.40
2022-09-17T17:16:20.767Z,7.50
2022-09-17T17:18:52.127Z,7.40
2022-09-17T17:21:22.335Z,7.30
2022-09-17T17:23:52.767Z,7.40
2022-09-17T17:26:22.908Z,7.30
2022-09-17T17:28:55.863Z,7.40
2022-09-17T17:31:27.376Z,7.10
2022-09-17T17:33:57.266Z,7.20
2022-09-17T17:36:26.968Z,7.20
2022-09-17T17:38:59.673Z,7.30
2022-09-17T17:41:29.829Z,7.60
2022-09-17T17:44:02.126Z,7.40
2022-09-17T17:46:31.866Z,7.40
2022-09-17T17:49:02.076Z,7.70
2022-09-17T17:51:31.826Z,7.30
2022-09-17T17:54:01.989Z,7.30
2022-09-17T17:56:31.670Z,7.30
2022-09-17T17:59:04.392Z,7.30
2022-09-17T18:01:35.057Z,7.30
2022-09-17T18:04:07.853Z,7.30
2022-09-17T18:06:37.770Z,7.10
2022-09-17T18:09:08.755Z,7.20
2022-09-17T18:11:38.987Z,7.20
2022-09-17T18:14:15.370Z,7.20
2022-09-17T18:16:45.214Z,7.20
2022-09-17T18:19:16.129Z,7.10
2022-09-17T18:21:45.874Z,7.20
2022-09-17T18:24:16.253Z,7.10
2022-09-17T18:26:47.503Z,7.30
2022-09-17T18:29:20.411Z,7.00
2022-09-17T18:31:50.268Z,7.00
2022-09-17T18:34:20.698Z,7.00
2022-09-17T18:36:51.468Z,7.20
2022-09-17T18:42:12.527Z,7.00
2022-09-17T18:44:45.449Z,6.80
2022-09-17T18:47:15.202Z,6.80
2022-09-17T18:49:44.969Z,6.90
2022-09-17T18:52:14.770Z,7.00
2022-09-17T18:54:46.291Z,6.90
2022-09-17T18:57:16.062Z,7.30
2022-09-17T18:59:49.387Z,6.90
2022-09-17T19:02:19.195Z,6.80
2022-09-17T19:04:49.745Z,6.90
2022-09-17T19:07:19.463Z,6.70
2022-09-17T19:09:49.422Z,6.90
2022-09-17T19:12:19.144Z,6.70
2022-09-17T19:14:51.885Z,6.90
2022-09-17T19:17:21.575Z,7.30
2022-09-17T19:19:51.986Z,7.00
2022-09-17T19:22:21.700Z,7.30
2022-09-17T19:24:52.072Z,7.00
2022-09-17T19:27:21.761Z,6.90
2022-09-17T19:29:57.954Z,7.00
2022-09-17T19:32:28.291Z,7.00
2022-09-17T19:34:58.811Z,7.00
2022-09-17T19:37:28.795Z,7.00
2022-09-17T19:39:58.941Z,7.00
2022-09-17T19:42:28.672Z,7.10
2022-09-17T19:45:01.710Z,7.00
2022-09-17T19:47:32.156Z,7.10
2022-09-17T19:50:01.902Z,7.30
2022-09-17T19:52:31.602Z,7.10
2022-09-17T19:55:01.772Z,7.10
2022-09-17T19:57:31.473Z,7.00
2022-09-17T20:00:05.106Z,7.00
2022-09-17T20:02:40.314Z,7.10
2022-09-17T20:05:11.301Z,7.40
2022-09-17T20:07:42.822Z,7.00
2022-09-17T20:10:13.248Z,7.10
2022-09-17T20:12:42.986Z,7.00
2022-09-17T20:15:16.771Z,7.00
2022-09-17T20:17:46.805Z,7.30
2022-09-17T20:20:17.809Z,7.00
2022-09-17T20:22:48.666Z,7.00
2022-09-17T20:25:18.704Z,7.10
2022-09-17T20:27:48.462Z,7.10
2022-09-17T20:30:21.446Z,7.30
2022-09-17T20:32:51.467Z,7.10
2022-09-17T20:35:22.034Z,7.10
2022-09-17T20:40:42.184Z,7.10
2022-09-17T20:43:11.960Z,7.00
2022-09-17T20:45:45.072Z,7.00
2022-09-17T20:48:14.832Z,7.10
2022-09-17T20:50:44.703Z,7.30
2022-09-17T20:53:14.446Z,7.00
2022-09-17T20:55:44.723Z,7.10
2022-09-17T20:58:17.094Z,7.10
2022-09-17T21:00:49.456Z,7.00
2022-09-17T21:03:20.340Z,7.00
2022-09-17T21:05:50.400Z,7.30
2022-09-17T21:08:20.199Z,7.00
2022-09-17T21:10:50.002Z,7.00
2022-09-17T21:13:19.739Z,7.10
2022-09-17T21:16:00.616Z,7.00
2022-09-17T21:18:30.731Z,7.00
2022-09-17T21:21:04.536Z,7.00
2022-09-17T21:23:38.614Z,7.10
2022-09-17T21:26:10.957Z,7.20
2022-09-17T21:28:41.218Z,7.00
2022-09-17T21:31:17.342Z,7.00
2022-09-17T21:33:48.565Z,7.00
2022-09-17T21:36:21.530Z,6.90
2022-09-17T21:38:54.358Z,7.00
2022-09-17T21:41:26.492Z,7.10
2022-09-17T21:43:56.976Z,7.00
2022-09-17T21:46:31.334Z,7.10
2022-09-17T21:49:02.418Z,7.00
2022-09-17T21:51:36.197Z,7.00
2022-09-17T21:54:07.879Z,7.00
2022-09-17T21:56:38.762Z,7.10
2022-09-17T21:59:11.885Z,6.90
2022-09-17T22:01:46.957Z,6.90
2022-09-17T22:04:19.855Z,7.00
2022-09-17T22:06:51.017Z,7.20
2022-09-17T22:09:23.245Z,7.00
2022-09-17T22:11:54.129Z,6.90
2022-09-17T22:14:26.087Z,6.90
2022-09-17T22:16:59.835Z,6.80
2022-09-17T22:19:30.756Z,7.00
2022-09-17T22:22:00.518Z,6.70
2022-09-17T22:24:31.098Z,6.90
2022-09-17T22:27:00.835Z,6.90
2022-09-17T22:29:32.313Z,6.90
2022-09-17T22:32:05.113Z,6.90
2022-09-17T22:34:35.210Z,6.90
2022-09-17T22:37:06.338Z,6.90
2022-09-17T22:39:37.094Z,7.30
2022-09-17T22:42:07.292Z,7.00
2022-09-17T22:44:37.277Z,6.90
2022-09-17T22:47:09.968Z,6.80
2022-09-17T22:49:40.430Z,6.80
2022-09-17T22:52:10.166Z,6.80
2022-09-17T22:54:41.137Z,6.80
2022-09-17T22:57:10.945Z,6.70
2022-09-17T22:59:41.270Z,7.00
2022-09-17T23:02:13.617Z,6.80
2022-09-17T23:04:44.356Z,6.70
2022-09-17T23:07:14.447Z,6.80
2022-09-17T23:09:47.699Z,6.70
2022-09-17T23:12:17.489Z,6.70
2022-09-17T23:14:48.010Z,6.70
2022-09-17T23:17:20.538Z,6.70
2022-09-17T23:19:50.873Z,6.70
2022-09-17T23:22:23.148Z,6.70
2022-09-17T23:24:53.242Z,6.70
2022-09-17T23:27:22.982Z,6.80
2022-09-17T23:29:53.094Z,6.80
2022-09-17T23:32:25.404Z,6.80
2022-09-17T23:34:56.084Z,6.70
2022-09-17T23:37:25.808Z,6.80
2022-09-17T23:39:56.693Z,6.70
2022-09-17T23:42:26.569Z,6.70
2022-09-17T23:44:56.770Z,6.70
2022-09-17T23:47:29.085Z,6.70
2022-09-17T23:49:59.127Z,6.70
2022-09-17T23:52:28.914Z,6.60
2022-09-17T23:54:58.986Z,6.60
2022-09-17T23:57:28.775Z,6.60
2022-09-17T23:59:59.428Z,6.60
